sensor_id;sensor_type;location;lat;lon;timestamp;temperature;humidity
23251;DHT22;11794;49.730;10.088;2022-11-12T00:00:00;4.80;99.90
23251;DHT22;11794;49.730;10.088;2022-11-12T00:02:25;4.80;99.90
23251;DHT22;11794;49.730;10.088;2022-11-12T00:04:51;4.80;99.90
23251;DHT22;11794;49.730;10.088;2022-11-12T00:07:16;4.70;99.90
23251;DHT22;11794;49.730;10.088;2022-11-12T00:09:42;4.70;99.90
23251;DHT22;11794;49.730;10.088;2022-11-12T00:12:07;4.60;99.90
23251;DHT22;11794;49.730;10.088;2022-11-12T00:14:33;4.60;99.90
23251;DHT22;11794;49.730;10.088;2022-11-12T00:16:58;4.60;99.90
23251;DHT22;11794;49.730;10.088;2022-11-12T00:19:24;4.50;99.90
23251;DHT22;11794;49.730;10.088;2022-11-12T00:21:49;4.50;99.90
23251;DHT22;11794;49.730;10.088;2022-11-12T00:24:15;4.50;99.90
23251;DHT22;11794;49.730;10.088;2022-11-12T00:26:40;4.40;99.90
23251;DHT22;11794;49.730;10.088;2022-11-12T00:29:06;4.40;99.90
23251;DHT22;11794;49.730;10.088;2022-11-12T00:31:31;4.30;99.90
23251;DHT22;11794;49.730;10.088;2022-11-12T00:33:58;4.30;99.90
23251;DHT22;11794;49.730;10.088;2022-11-12T00:36:24;4.20;99.90
23251;DHT22;11794;49.730;10.088;2022-11-12T00:38:49;4.10;99.90
23251;DHT22;11794;49.730;10.088;2022-11-12T00:41:15;4.10;99.90
23251;DHT22;11794;49.730;10.088;2022-11-12T00:43:40;4.20;99.90
23251;DHT22;11794;49.730;10.088;2022-11-12T00:46:06;4.10;99.90
23251;DHT22;11794;49.730;10.088;2022-11-12T00:48:31;4.10;99.90
23251;DHT22;11794;49.730;10.088;2022-11-12T00:51:02;4.10;99.90
23251;DHT22;11794;49.730;10.088;2022-11-12T00:53:28;4.10;99.90
23251;DHT22;11794;49.730;10.088;2022-11-12T00:56:02;4.20;99.90
23251;DHT22;11794;49.730;10.088;2022-11-12T00:58:29;4.30;99.90
23251;DHT22;11794;49.730;10.088;2022-11-12T01:00:55;4.30;99.90
23251;DHT22;11794;49.730;10.088;2022-11-12T01:03:21;4.30;99.90
23251;DHT22;11794;49.730;10.088;2022-11-12T01:05:46;4.20;99.90
23251;DHT22;11794;49.730;10.088;2022-11-12T01:08:12;4.20;99.90
23251;DHT22;11794;49.730;10.088;2022-11-12T01:10:38;4.20;99.90
23251;DHT22;11794;49.730;10.088;2022-11-12T01:13:03;4.30;99.90
23251;DHT22;11794;49.730;10.088;2022-11-12T01:15:29;4.30;99.90
23251;DHT22;11794;49.730;10.088;2022-11-12T01:17:54;4.30;99.90
23251;DHT22;11794;49.730;10.088;2022-11-12T01:20:20;4.20;99.90
23251;DHT22;11794;49.730;10.088;2022-11-12T01:22:45;4.20;99.90
23251;DHT22;11794;49.730;10.088;2022-11-12T01:25:11;4.20;99.90
23251;DHT22;11794;49.730;10.088;2022-11-12T01:27:36;4.20;99.90
23251;DHT22;11794;49.730;10.088;2022-11-12T01:30:04;4.10;99.90
23251;DHT22;11794;49.730;10.088;2022-11-12T01:32:34;4.00;99.90
23251;DHT22;11794;49.730;10.088;2022-11-12T01:35:00;4.00;99.90
23251;DHT22;11794;49.730;10.088;2022-11-12T01:37:25;3.90;99.90
23251;DHT22;11794;49.730;10.088;2022-11-12T01:39:51;4.00;99.90
23251;DHT22;11794;49.730;10.088;2022-11-12T01:42:16;4.00;99.90
23251;DHT22;11794;49.730;10.088;2022-11-12T01:44:44;4.00;99.90
23251;DHT22;11794;49.730;10.088;2022-11-12T01:47:23;3.90;99.90
23251;DHT22;11794;49.730;10.088;2022-11-12T01:49:59;3.90;99.90
23251;DHT22;11794;49.730;10.088;2022-11-12T01:52:36;4.00;99.90
23251;DHT22;11794;49.730;10.088;2022-11-12T01:55:13;3.90;99.90
23251;DHT22;11794;49.730;10.088;2022-11-12T01:57:46;3.80;99.90
23251;DHT22;11794;49.730;10.088;2022-11-12T02:00:13;3.80;99.90
23251;DHT22;11794;49.730;10.088;2022-11-12T02:02:39;3.80;99.90
23251;DHT22;11794;49.730;10.088;2022-11-12T02:05:07;3.80;99.90
23251;DHT22;11794;49.730;10.088;2022-11-12T02:07:35;3.70;99.90
23251;DHT22;11794;49.730;10.088;2022-11-12T02:10:03;3.70;99.90
23251;DHT22;11794;49.730;10.088;2022-11-12T02:12:30;3.70;99.90
23251;DHT22;11794;49.730;10.088;2022-11-12T02:15:14;3.70;99.90
23251;DHT22;11794;49.730;10.088;2022-11-12T02:17:40;3.80;99.90
23251;DHT22;11794;49.730;10.088;2022-11-12T02:20:09;3.80;99.90
23251;DHT22;11794;49.730;10.088;2022-11-12T02:22:35;3.70;99.90
23251;DHT22;11794;49.730;10.088;2022-11-12T02:25:00;3.60;99.90
23251;DHT22;11794;49.730;10.088;2022-11-12T02:27:26;3.50;99.90
23251;DHT22;11794;49.730;10.088;2022-11-12T02:29:51;3.50;99.90
23251;DHT22;11794;49.730;10.088;2022-11-12T02:32:17;3.60;99.90
23251;DHT22;11794;49.730;10.088;2022-11-12T02:34:44;3.60;99.90
23251;DHT22;11794;49.730;10.088;2022-11-12T02:37:09;3.60;99.90
23251;DHT22;11794;49.730;10.088;2022-11-12T02:39:35;3.60;99.90
23251;DHT22;11794;49.730;10.088;2022-11-12T02:42:01;3.60;99.90
23251;DHT22;11794;49.730;10.088;2022-11-12T02:44:26;3.60;99.90
23251;DHT22;11794;49.730;10.088;2022-11-12T02:46:52;3.70;99.90
23251;DHT22;11794;49.730;10.088;2022-11-12T02:49:17;3.70;99.90
23251;DHT22;11794;49.730;10.088;2022-11-12T02:51:43;3.60;99.90
23251;DHT22;11794;49.730;10.088;2022-11-12T02:54:08;3.70;99.90
23251;DHT22;11794;49.730;10.088;2022-11-12T02:56:34;3.70;99.90
23251;DHT22;11794;49.730;10.088;2022-11-12T02:59:00;3.80;99.90
23251;DHT22;11794;49.730;10.088;2022-11-12T03:01:25;3.80;99.90
23251;DHT22;11794;49.730;10.088;2022-11-12T03:03:51;3.70;99.90
23251;DHT22;11794;49.730;10.088;2022-11-12T03:06:17;3.80;99.90
23251;DHT22;11794;49.730;10.088;2022-11-12T03:08:42;3.80;99.90
23251;DHT22;11794;49.730;10.088;2022-11-12T03:11:13;3.80;99.90
23251;DHT22;11794;49.730;10.088;2022-11-12T03:13:39;3.80;99.90
23251;DHT22;11794;49.730;10.088;2022-11-12T03:16:05;3.90;99.90
23251;DHT22;11794;49.730;10.088;2022-11-12T03:18:31;3.80;99.90
23251;DHT22;11794;49.730;10.088;2022-11-12T03:20:57;3.90;99.90
23251;DHT22;11794;49.730;10.088;2022-11-12T03:23:22;3.80;99.90
23251;DHT22;11794;49.730;10.088;2022-11-12T03:25:48;3.80;99.90
23251;DHT22;11794;49.730;10.088;2022-11-12T03:28:15;3.80;99.90
23251;DHT22;11794;49.730;10.088;2022-11-12T03:30:41;3.80;99.90
23251;DHT22;11794;49.730;10.088;2022-11-12T03:33:09;3.80;99.90
23251;DHT22;11794;49.730;10.088;2022-11-12T03:35:36;3.80;99.90
23251;DHT22;11794;49.730;10.088;2022-11-12T03:38:02;3.80;99.90
23251;DHT22;11794;49.730;10.088;2022-11-12T03:40:28;3.80;99.90
23251;DHT22;11794;49.730;10.088;2022-11-12T03:42:54;3.90;99.90
23251;DHT22;11794;49.730;10.088;2022-11-12T03:45:22;3.90;99.90
23251;DHT22;11794;49.730;10.088;2022-11-12T03:47:49;3.90;99.90
23251;DHT22;11794;49.730;10.088;2022-11-12T03:50:16;4.00;99.90
23251;DHT22;11794;49.730;10.088;2022-11-12T03:52:49;4.00;99.90
23251;DHT22;11794;49.730;10.088;2022-11-12T03:55:16;4.00;99.90
23251;DHT22;11794;49.730;10.088;2022-11-12T03:57:42;4.00;99.90
23251;DHT22;11794;49.730;10.088;2022-11-12T04:00:09;4.00;99.90
23251;DHT22;11794;49.730;10.088;2022-11-12T04:02:35;4.00;99.90
23251;DHT22;11794;49.730;10.088;2022-11-12T04:05:01;4.10;99.90
23251;DHT22;11794;49.730;10.088;2022-11-12T04:08:01;4.10;99.90
23251;DHT22;11794;49.730;10.088;2022-11-12T04:10:45;4.00;99.90
23251;DHT22;11794;49.730;10.088;2022-11-12T04:13:11;3.90;99.90
23251;DHT22;11794;49.730;10.088;2022-11-12T04:15:58;3.90;99.90
23251;DHT22;11794;49.730;10.088;2022-11-12T04:18:44;3.90;99.90
23251;DHT22;11794;49.730;10.088;2022-11-12T04:21:38;3.90;99.90
23251;DHT22;11794;49.730;10.088;2022-11-12T04:27:04;3.90;99.90
23251;DHT22;11794;49.730;10.088;2022-11-12T04:29:30;3.90;99.90
23251;DHT22;11794;49.730;10.088;2022-11-12T04:32:14;3.90;99.90
23251;DHT22;11794;49.730;10.088;2022-11-12T04:34:40;3.80;99.90
23251;DHT22;11794;49.730;10.088;2022-11-12T04:37:06;3.90;99.90
23251;DHT22;11794;49.730;10.088;2022-11-12T04:39:32;3.90;99.90
23251;DHT22;11794;49.730;10.088;2022-11-12T04:41:58;3.80;99.90
23251;DHT22;11794;49.730;10.088;2022-11-12T04:44:41;3.80;99.90
23251;DHT22;11794;49.730;10.088;2022-11-12T04:47:27;3.80;99.90
23251;DHT22;11794;49.730;10.088;2022-11-12T04:49:53;3.90;99.90
23251;DHT22;11794;49.730;10.088;2022-11-12T04:52:19;4.00;99.90
23251;DHT22;11794;49.730;10.088;2022-11-12T04:54:45;4.00;99.90
23251;DHT22;11794;49.730;10.088;2022-11-12T04:57:10;4.00;99.90
23251;DHT22;11794;49.730;10.088;2022-11-12T04:59:36;4.00;99.90
23251;DHT22;11794;49.730;10.088;2022-11-12T05:02:01;4.00;99.90
23251;DHT22;11794;49.730;10.088;2022-11-12T05:04:27;4.00;99.90
23251;DHT22;11794;49.730;10.088;2022-11-12T05:06:57;4.00;99.90
23251;DHT22;11794;49.730;10.088;2022-11-12T05:09:25;4.00;99.90
23251;DHT22;11794;49.730;10.088;2022-11-12T05:11:51;4.00;99.90
23251;DHT22;11794;49.730;10.088;2022-11-12T05:14:17;4.00;99.90
23251;DHT22;11794;49.730;10.088;2022-11-12T05:16:43;3.90;99.90
23251;DHT22;11794;49.730;10.088;2022-11-12T05:19:09;3.90;99.90
23251;DHT22;11794;49.730;10.088;2022-11-12T05:21:34;3.90;99.90
23251;DHT22;11794;49.730;10.088;2022-11-12T05:24:19;3.90;99.90
23251;DHT22;11794;49.730;10.088;2022-11-12T05:26:45;3.90;99.90
23251;DHT22;11794;49.730;10.088;2022-11-12T05:29:10;3.80;99.90
23251;DHT22;11794;49.730;10.088;2022-11-12T05:31:36;3.80;99.90
23251;DHT22;11794;49.730;10.088;2022-11-12T05:34:01;3.80;99.90
23251;DHT22;11794;49.730;10.088;2022-11-12T05:36:27;3.70;99.90
23251;DHT22;11794;49.730;10.088;2022-11-12T05:38:53;3.70;99.90
23251;DHT22;11794;49.730;10.088;2022-11-12T05:41:18;3.70;99.90
23251;DHT22;11794;49.730;10.088;2022-11-12T05:43:44;3.60;99.90
23251;DHT22;11794;49.730;10.088;2022-11-12T05:46:09;3.50;99.90
23251;DHT22;11794;49.730;10.088;2022-11-12T05:48:35;3.60;99.90
23251;DHT22;11794;49.730;10.088;2022-11-12T05:51:01;3.60;99.90
23251;DHT22;11794;49.730;10.088;2022-11-12T05:53:26;3.50;99.90
23251;DHT22;11794;49.730;10.088;2022-11-12T05:55:52;3.50;99.90
23251;DHT22;11794;49.730;10.088;2022-11-12T05:58:17;3.50;99.90
23251;DHT22;11794;49.730;10.088;2022-11-12T06:00:43;3.50;99.90
23251;DHT22;11794;49.730;10.088;2022-11-12T06:03:09;3.50;99.90
23251;DHT22;11794;49.730;10.088;2022-11-12T06:05:35;3.50;99.90
23251;DHT22;11794;49.730;10.088;2022-11-12T06:08:02;3.50;99.90
23251;DHT22;11794;49.730;10.088;2022-11-12T06:10:28;3.50;99.90
23251;DHT22;11794;49.730;10.088;2022-11-12T06:12:54;3.60;99.90
23251;DHT22;11794;49.730;10.088;2022-11-12T06:15:19;3.60;99.90
23251;DHT22;11794;49.730;10.088;2022-11-12T06:17:45;3.60;99.90
23251;DHT22;11794;49.730;10.088;2022-11-12T06:20:11;3.70;99.90
23251;DHT22;11794;49.730;10.088;2022-11-12T06:22:37;3.70;99.90
23251;DHT22;11794;49.730;10.088;2022-11-12T06:25:03;3.70;99.90
23251;DHT22;11794;49.730;10.088;2022-11-12T06:27:29;3.70;99.90
23251;DHT22;11794;49.730;10.088;2022-11-12T06:29:54;3.70;99.90
23251;DHT22;11794;49.730;10.088;2022-11-12T06:32:20;3.60;99.90
23251;DHT22;11794;49.730;10.088;2022-11-12T06:34:45;3.50;99.90
23251;DHT22;11794;49.730;10.088;2022-11-12T06:37:11;3.50;99.90
23251;DHT22;11794;49.730;10.088;2022-11-12T06:39:36;3.50;99.90
23251;DHT22;11794;49.730;10.088;2022-11-12T06:42:02;3.50;99.90
23251;DHT22;11794;49.730;10.088;2022-11-12T06:44:27;3.50;99.90
23251;DHT22;11794;49.730;10.088;2022-11-12T06:46:53;3.50;99.90
23251;DHT22;11794;49.730;10.088;2022-11-12T06:49:19;3.60;99.90
23251;DHT22;11794;49.730;10.088;2022-11-12T06:51:44;3.50;99.90
23251;DHT22;11794;49.730;10.088;2022-11-12T06:54:10;3.40;99.90
23251;DHT22;11794;49.730;10.088;2022-11-12T06:56:35;3.40;99.90
23251;DHT22;11794;49.730;10.088;2022-11-12T06:59:01;3.40;99.90
23251;DHT22;11794;49.730;10.088;2022-11-12T07:01:27;3.40;99.90
23251;DHT22;11794;49.730;10.088;2022-11-12T07:03:53;3.40;99.90
23251;DHT22;11794;49.730;10.088;2022-11-12T07:06:19;3.50;99.90
23251;DHT22;11794;49.730;10.088;2022-11-12T07:08:49;3.50;99.90
23251;DHT22;11794;49.730;10.088;2022-11-12T07:11:15;3.50;99.90
23251;DHT22;11794;49.730;10.088;2022-11-12T07:13:42;3.50;99.90
23251;DHT22;11794;49.730;10.088;2022-11-12T07:16:11;3.50;99.90
23251;DHT22;11794;49.730;10.088;2022-11-12T07:18:38;3.70;99.90
23251;DHT22;11794;49.730;10.088;2022-11-12T07:21:06;3.70;99.90
23251;DHT22;11794;49.730;10.088;2022-11-12T07:23:33;3.80;99.90
23251;DHT22;11794;49.730;10.088;2022-11-12T07:28:27;3.90;99.90
23251;DHT22;11794;49.730;10.088;2022-11-12T07:30:57;3.80;99.90
23251;DHT22;11794;49.730;10.088;2022-11-12T07:33:23;3.90;99.90
23251;DHT22;11794;49.730;10.088;2022-11-12T07:35:59;3.90;99.90
23251;DHT22;11794;49.730;10.088;2022-11-12T07:38:26;3.90;99.90
23251;DHT22;11794;49.730;10.088;2022-11-12T07:40:58;3.90;99.90
23251;DHT22;11794;49.730;10.088;2022-11-12T07:43:23;4.00;99.90
23251;DHT22;11794;49.730;10.088;2022-11-12T07:45:49;4.10;99.90
23251;DHT22;11794;49.730;10.088;2022-11-12T07:48:14;4.10;99.90
23251;DHT22;11794;49.730;10.088;2022-11-12T07:50:40;4.10;99.90
23251;DHT22;11794;49.730;10.088;2022-11-12T07:53:05;4.20;99.90
23251;DHT22;11794;49.730;10.088;2022-11-12T07:55:31;4.20;99.90
23251;DHT22;11794;49.730;10.088;2022-11-12T07:58:00;4.30;99.90
23251;DHT22;11794;49.730;10.088;2022-11-12T08:00:25;4.40;99.90
23251;DHT22;11794;49.730;10.088;2022-11-12T08:02:51;4.40;99.90
23251;DHT22;11794;49.730;10.088;2022-11-12T08:05:16;4.40;99.90
23251;DHT22;11794;49.730;10.088;2022-11-12T08:07:42;4.50;99.90
23251;DHT22;11794;49.730;10.088;2022-11-12T08:10:08;4.60;99.90
23251;DHT22;11794;49.730;10.088;2022-11-12T08:12:33;4.60;99.90
23251;DHT22;11794;49.730;10.088;2022-11-12T08:14:59;4.70;99.90
23251;DHT22;11794;49.730;10.088;2022-11-12T08:17:24;4.80;99.90
23251;DHT22;11794;49.730;10.088;2022-11-12T08:19:50;4.80;99.90
23251;DHT22;11794;49.730;10.088;2022-11-12T08:22:20;4.80;99.90
23251;DHT22;11794;49.730;10.088;2022-11-12T08:24:45;4.90;99.90
23251;DHT22;11794;49.730;10.088;2022-11-12T08:27:11;5.00;99.90
23251;DHT22;11794;49.730;10.088;2022-11-12T08:29:36;5.10;99.90
23251;DHT22;11794;49.730;10.088;2022-11-12T08:32:02;5.10;99.90
23251;DHT22;11794;49.730;10.088;2022-11-12T08:34:27;5.20;99.90
23251;DHT22;11794;49.730;10.088;2022-11-12T08:36:53;5.30;99.90
23251;DHT22;11794;49.730;10.088;2022-11-12T08:39:18;5.30;99.90
23251;DHT22;11794;49.730;10.088;2022-11-12T08:41:44;5.50;99.90
23251;DHT22;11794;49.730;10.088;2022-11-12T08:44:09;5.50;99.90
23251;DHT22;11794;49.730;10.088;2022-11-12T08:46:35;5.40;99.90
23251;DHT22;11794;49.730;10.088;2022-11-12T08:49:00;5.40;99.90
23251;DHT22;11794;49.730;10.088;2022-11-12T08:51:26;5.40;99.90
23251;DHT22;11794;49.730;10.088;2022-11-12T08:53:51;5.50;99.90
23251;DHT22;11794;49.730;10.088;2022-11-12T08:56:17;5.60;99.90
23251;DHT22;11794;49.730;10.088;2022-11-12T08:58:43;5.60;99.90
23251;DHT22;11794;49.730;10.088;2022-11-12T09:01:09;5.60;99.90
23251;DHT22;11794;49.730;10.088;2022-11-12T09:03:34;5.60;99.90
23251;DHT22;11794;49.730;10.088;2022-11-12T09:06:04;5.70;99.90
23251;DHT22;11794;49.730;10.088;2022-11-12T09:08:33;5.70;99.90
23251;DHT22;11794;49.730;10.088;2022-11-12T09:10:59;5.80;99.90
23251;DHT22;11794;49.730;10.088;2022-11-12T09:13:24;5.90;99.90
23251;DHT22;11794;49.730;10.088;2022-11-12T09:15:50;5.90;99.90
23251;DHT22;11794;49.730;10.088;2022-11-12T09:18:17;5.80;99.90
23251;DHT22;11794;49.730;10.088;2022-11-12T09:20:43;5.90;99.90
23251;DHT22;11794;49.730;10.088;2022-11-12T09:23:15;5.90;99.90
23251;DHT22;11794;49.730;10.088;2022-11-12T09:25:42;5.90;99.90
23251;DHT22;11794;49.730;10.088;2022-11-12T09:28:10;5.90;99.90
23251;DHT22;11794;49.730;10.088;2022-11-12T09:30:40;6.00;99.90
23251;DHT22;11794;49.730;10.088;2022-11-12T09:33:06;6.10;99.90
23251;DHT22;11794;49.730;10.088;2022-11-12T09:35:31;6.20;99.90
23251;DHT22;11794;49.730;10.088;2022-11-12T09:37:57;6.20;99.90
23251;DHT22;11794;49.730;10.088;2022-11-12T09:40:31;6.30;99.90
23251;DHT22;11794;49.730;10.088;2022-11-12T09:43:15;6.30;99.90
23251;DHT22;11794;49.730;10.088;2022-11-12T09:45:43;6.30;99.90
23251;DHT22;11794;49.730;10.088;2022-11-12T09:48:11;6.30;99.90
23251;DHT22;11794;49.730;10.088;2022-11-12T09:50:48;6.30;99.90
23251;DHT22;11794;49.730;10.088;2022-11-12T09:53:17;6.20;99.90
23251;DHT22;11794;49.730;10.088;2022-11-12T09:55:47;6.40;99.90
23251;DHT22;11794;49.730;10.088;2022-11-12T09:58:15;6.40;99.90
23251;DHT22;11794;49.730;10.088;2022-11-12T10:03:42;6.50;99.90
23251;DHT22;11794;49.730;10.088;2022-11-12T10:06:11;6.60;99.90
23251;DHT22;11794;49.730;10.088;2022-11-12T10:08:52;6.60;99.90
23251;DHT22;11794;49.730;10.088;2022-11-12T10:11:45;6.70;99.90
23251;DHT22;11794;49.730;10.088;2022-11-12T10:15:02;6.90;99.90
23251;DHT22;11794;49.730;10.088;2022-11-12T10:18:08;7.00;99.90
23251;DHT22;11794;49.730;10.088;2022-11-12T10:21:28;7.00;99.90
23251;DHT22;11794;49.730;10.088;2022-11-12T10:23:44;7.00;99.90
23251;DHT22;11794;49.730;10.088;2022-11-12T10:26:15;7.00;99.90
23251;DHT22;11794;49.730;10.088;2022-11-12T10:28:47;7.20;99.90
23251;DHT22;11794;49.730;10.088;2022-11-12T10:31:16;7.20;99.90
23251;DHT22;11794;49.730;10.088;2022-11-12T10:33:42;7.30;99.90
23251;DHT22;11794;49.730;10.088;2022-11-12T10:36:14;7.40;99.90
23251;DHT22;11794;49.730;10.088;2022-11-12T10:38:42;7.30;99.90
23251;DHT22;11794;49.730;10.088;2022-11-12T10:41:22;7.50;99.90
23251;DHT22;11794;49.730;10.088;2022-11-12T10:44:02;7.50;99.90
23251;DHT22;11794;49.730;10.088;2022-11-12T10:46:36;7.40;99.90
23251;DHT22;11794;49.730;10.088;2022-11-12T10:49:04;7.40;99.90
23251;DHT22;11794;49.730;10.088;2022-11-12T10:51:34;7.50;99.90
23251;DHT22;11794;49.730;10.088;2022-11-12T10:54:37;7.50;99.90
23251;DHT22;11794;49.730;10.088;2022-11-12T10:57:22;7.60;99.90
23251;DHT22;11794;49.730;10.088;2022-11-12T11:00:24;7.60;99.90
23251;DHT22;11794;49.730;10.088;2022-11-12T11:02:51;7.80;99.90
23251;DHT22;11794;49.730;10.088;2022-11-12T11:05:36;7.90;99.90
23251;DHT22;11794;49.730;10.088;2022-11-12T11:08:03;8.10;99.90
23251;DHT22;11794;49.730;10.088;2022-11-12T11:10:34;8.10;99.90
23251;DHT22;11794;49.730;10.088;2022-11-12T11:13:24;8.00;99.90
23251;DHT22;11794;49.730;10.088;2022-11-12T11:16:02;8.10;99.90
23251;DHT22;11794;49.730;10.088;2022-11-12T11:18:30;8.30;99.90
23251;DHT22;11794;49.730;10.088;2022-11-12T11:21:05;8.50;99.90
23251;DHT22;11794;49.730;10.088;2022-11-12T11:23:39;8.70;99.90
23251;DHT22;11794;49.730;10.088;2022-11-12T11:26:28;8.80;99.90
23251;DHT22;11794;49.730;10.088;2022-11-12T11:34:42;9.20;99.90
23251;DHT22;11794;49.730;10.088;2022-11-12T11:37:24;9.60;99.90
23251;DHT22;11794;49.730;10.088;2022-11-12T11:45:15;9.80;99.90
23251;DHT22;11794;49.730;10.088;2022-11-12T11:47:53;9.90;99.90
23251;DHT22;11794;49.730;10.088;2022-11-12T11:50:29;9.80;99.90
23251;DHT22;11794;49.730;10.088;2022-11-12T11:56:01;9.60;99.90
23251;DHT22;11794;49.730;10.088;2022-11-12T11:58:40;9.60;99.90
23251;DHT22;11794;49.730;10.088;2022-11-12T12:20:49;9.00;99.90
23251;DHT22;11794;49.730;10.088;2022-11-12T12:23:37;8.80;99.90
23251;DHT22;11794;49.730;10.088;2022-11-12T12:26:11;8.70;99.90
23251;DHT22;11794;49.730;10.088;2022-11-12T12:28:45;8.80;99.90
23251;DHT22;11794;49.730;10.088;2022-11-12T12:31:17;8.60;99.90
23251;DHT22;11794;49.730;10.088;2022-11-12T12:34:00;8.60;99.90
23251;DHT22;11794;49.730;10.088;2022-11-12T12:36:38;8.50;99.90
23251;DHT22;11794;49.730;10.088;2022-11-12T12:39:17;8.50;99.90
23251;DHT22;11794;49.730;10.088;2022-11-12T12:42:03;8.50;99.90
23251;DHT22;11794;49.730;10.088;2022-11-12T12:44:42;8.50;99.90
23251;DHT22;11794;49.730;10.088;2022-11-12T12:47:29;8.50;99.90
23251;DHT22;11794;49.730;10.088;2022-11-12T12:49:56;8.50;99.90
23251;DHT22;11794;49.730;10.088;2022-11-12T12:52:22;8.50;99.90
23251;DHT22;11794;49.730;10.088;2022-11-12T12:57:31;8.50;99.90
23251;DHT22;11794;49.730;10.088;2022-11-12T13:02:54;8.60;99.90
23251;DHT22;11794;49.730;10.088;2022-11-12T13:05:29;8.60;99.90
23251;DHT22;11794;49.730;10.088;2022-11-12T13:08:00;8.50;99.90
23251;DHT22;11794;49.730;10.088;2022-11-12T13:10:45;8.60;99.90
23251;DHT22;11794;49.730;10.088;2022-11-12T13:15:45;8.60;99.90
23251;DHT22;11794;49.730;10.088;2022-11-12T13:21:10;8.70;99.90
23251;DHT22;11794;49.730;10.088;2022-11-12T13:23:46;8.60;99.90
23251;DHT22;11794;49.730;10.088;2022-11-12T13:26:57;8.50;99.90
23251;DHT22;11794;49.730;10.088;2022-11-12T13:32:25;8.50;99.90
23251;DHT22;11794;49.730;10.088;2022-11-12T13:37:49;8.60;99.90
23251;DHT22;11794;49.730;10.088;2022-11-12T13:40:38;8.60;99.90
23251;DHT22;11794;49.730;10.088;2022-11-12T13:50:54;8.80;99.90
23251;DHT22;11794;49.730;10.088;2022-11-12T13:53:24;8.70;99.90
23251;DHT22;11794;49.730;10.088;2022-11-12T13:55:52;8.60;99.90
23251;DHT22;11794;49.730;10.088;2022-11-12T14:00:52;8.70;99.90
23251;DHT22;11794;49.730;10.088;2022-11-12T14:03:19;8.70;99.90
23251;DHT22;11794;49.730;10.088;2022-11-12T14:05:47;8.70;99.90
23251;DHT22;11794;49.730;10.088;2022-11-12T14:08:35;8.70;99.90
23251;DHT22;11794;49.730;10.088;2022-11-12T14:11:44;8.80;99.90
23251;DHT22;11794;49.730;10.088;2022-11-12T14:14:28;8.80;99.90
23251;DHT22;11794;49.730;10.088;2022-11-12T14:17:12;8.80;99.90
23251;DHT22;11794;49.730;10.088;2022-11-12T14:20:16;8.90;99.90
23251;DHT22;11794;49.730;10.088;2022-11-12T14:22:45;8.90;99.90
23251;DHT22;11794;49.730;10.088;2022-11-12T14:25:15;9.00;99.90
23251;DHT22;11794;49.730;10.088;2022-11-12T14:27:43;9.10;99.90
23251;DHT22;11794;49.730;10.088;2022-11-12T14:32:45;9.10;99.90
23251;DHT22;11794;49.730;10.088;2022-11-12T14:35:29;9.00;99.90
23251;DHT22;11794;49.730;10.088;2022-11-12T14:40:50;9.00;99.90
23251;DHT22;11794;49.730;10.088;2022-11-12T14:43:32;9.00;99.90
23251;DHT22;11794;49.730;10.088;2022-11-12T14:46:01;9.00;99.90
23251;DHT22;11794;49.730;10.088;2022-11-12T14:48:29;9.00;99.90
23251;DHT22;11794;49.730;10.088;2022-11-12T14:51:03;8.90;99.90
23251;DHT22;11794;49.730;10.088;2022-11-12T14:53:55;8.90;99.90
23251;DHT22;11794;49.730;10.088;2022-11-12T14:56:31;8.80;99.90
23251;DHT22;11794;49.730;10.088;2022-11-12T14:58:58;8.80;99.90
23251;DHT22;11794;49.730;10.088;2022-11-12T15:01:30;8.70;99.90
23251;DHT22;11794;49.730;10.088;2022-11-12T15:04:17;8.60;99.90
23251;DHT22;11794;49.730;10.088;2022-11-12T15:06:53;8.50;99.90
23251;DHT22;11794;49.730;10.088;2022-11-12T15:09:31;8.40;99.90
23251;DHT22;11794;49.730;10.088;2022-11-12T15:11:57;8.30;99.90
23251;DHT22;11794;49.730;10.088;2022-11-12T15:14:23;8.30;99.90
23251;DHT22;11794;49.730;10.088;2022-11-12T15:16:50;8.30;99.90
23251;DHT22;11794;49.730;10.088;2022-11-12T15:21:51;8.10;99.90
23251;DHT22;11794;49.730;10.088;2022-11-12T15:24:26;7.90;99.90
23251;DHT22;11794;49.730;10.088;2022-11-12T15:26:54;7.90;99.90
23251;DHT22;11794;49.730;10.088;2022-11-12T15:29:31;7.90;99.90
23251;DHT22;11794;49.730;10.088;2022-11-12T15:32:03;7.80;99.90
23251;DHT22;11794;49.730;10.088;2022-11-12T15:34:47;7.80;99.90
23251;DHT22;11794;49.730;10.088;2022-11-12T15:39:47;7.60;99.90
23251;DHT22;11794;49.730;10.088;2022-11-12T15:42:22;7.50;99.90
23251;DHT22;11794;49.730;10.088;2022-11-12T15:44:50;7.50;99.90
23251;DHT22;11794;49.730;10.088;2022-11-12T15:47:21;7.40;99.90
23251;DHT22;11794;49.730;10.088;2022-11-12T15:49:48;7.30;99.90
23251;DHT22;11794;49.730;10.088;2022-11-12T15:52:14;7.30;99.90
23251;DHT22;11794;49.730;10.088;2022-11-12T15:54:39;7.30;99.90
23251;DHT22;11794;49.730;10.088;2022-11-12T15:57:13;7.30;99.90
23251;DHT22;11794;49.730;10.088;2022-11-12T15:59:40;7.30;99.90
23251;DHT22;11794;49.730;10.088;2022-11-12T16:02:13;7.20;99.90
23251;DHT22;11794;49.730;10.088;2022-11-12T16:04:39;7.20;99.90
23251;DHT22;11794;49.730;10.088;2022-11-12T16:07:04;7.10;99.90
23251;DHT22;11794;49.730;10.088;2022-11-12T16:09:32;7.20;99.90
23251;DHT22;11794;49.730;10.088;2022-11-12T16:11:59;7.10;99.90
23251;DHT22;11794;49.730;10.088;2022-11-12T16:14:25;7.10;99.90
23251;DHT22;11794;49.730;10.088;2022-11-12T16:16:51;7.10;99.90
23251;DHT22;11794;49.730;10.088;2022-11-12T16:19:16;7.10;99.90
23251;DHT22;11794;49.730;10.088;2022-11-12T16:21:42;7.00;99.90
23251;DHT22;11794;49.730;10.088;2022-11-12T16:24:07;7.00;99.90
23251;DHT22;11794;49.730;10.088;2022-11-12T16:26:33;6.90;99.90
23251;DHT22;11794;49.730;10.088;2022-11-12T16:28:59;6.90;99.90
23251;DHT22;11794;49.730;10.088;2022-11-12T16:31:25;6.90;99.90
23251;DHT22;11794;49.730;10.088;2022-11-12T16:33:51;6.80;99.90
23251;DHT22;11794;49.730;10.088;2022-11-12T16:36:17;6.80;99.90
23251;DHT22;11794;49.730;10.088;2022-11-12T16:38:43;6.70;99.90
23251;DHT22;11794;49.730;10.088;2022-11-12T16:41:10;6.70;99.90
23251;DHT22;11794;49.730;10.088;2022-11-12T16:43:36;6.70;99.90
23251;DHT22;11794;49.730;10.088;2022-11-12T16:46:12;6.60;99.90
23251;DHT22;11794;49.730;10.088;2022-11-12T16:48:37;6.70;99.90
23251;DHT22;11794;49.730;10.088;2022-11-12T16:51:03;6.60;99.90
23251;DHT22;11794;49.730;10.088;2022-11-12T16:53:29;6.70;99.90
23251;DHT22;11794;49.730;10.088;2022-11-12T16:55:56;6.60;99.90
23251;DHT22;11794;49.730;10.088;2022-11-12T16:58:21;6.60;99.90
23251;DHT22;11794;49.730;10.088;2022-11-12T17:00:47;6.60;99.90
23251;DHT22;11794;49.730;10.088;2022-11-12T17:03:16;6.60;99.90
23251;DHT22;11794;49.730;10.088;2022-11-12T17:05:41;6.60;99.90